Tropical Cyclones
[Index]
Main Index Home Page Stock Weather Photos Extreme Storms Discussion Storm News and Storm Chasing Reports Tropical Cyclones / Hurricanes / Typhoons Weather Data and Links Wild Fires / Bushfires Weather Observation Techniques Weather Picture Catalogue Tornado Pictures and Reports Stock Video Footage and DVDs for sale
Season 2001-2002 Tropical Cyclone TROP-DEPRESSION-02 Track Map
Season 2001-2002 Summaries (Operational Data): [AU] [SIO] [SPAC] [SH]
<<- Previous TC | 2001-2002 Season | Next TC ->>

click for intensity scale information  Lat/long Grid: Show Hide

 Date Labels: Show Hide

Operational Tropical Cyclone Data

Name: TROP-DEPRESSION-02
Number: 02PC

31 Dec 2001 21:00 UTC to 07 Jan 2002 02:00 UTC

    date/time    lat    long     hPa   cat  kts
2001-12-31 21    8.5   165.2    1002         30          
2002-01-01 00    8.8   166.0    1002         30          
2002-01-01 06    9.0   166.2    1000         30          
2002-01-01 12    9.2   166.5     998         30          
2002-01-01 18    9.2   166.8     998         30          
2002-01-02 00   10.6   168.4     998         30          
2002-01-02 06   10.8   168.4     998         30          
2002-01-02 20   10.0   168.6     998         30          
2002-01-03 00   11.0   168.7     998         30          
2002-01-03 06   11.0   168.6     998         30          
2002-01-03 23   11.3   167.7    1000         30          
2002-01-04 06   11.5   167.5    1000         30          
2002-01-04 12   11.7   164.9    1000         30          
2002-01-04 18   11.5   160.9    1002         30          
2002-01-04 21   12.0   162.0    1002         30          
2002-01-05 06   12.3   165.0    1002         30          
2002-01-05 18   12.1   161.7    1001         30          
2002-01-06 06   14.0   159.0    1002         30          
2002-01-07 02   13.0   157.0    1005         25          
Winds are 10-min average.

Tropical cyclone tracks developed by Michael Bath using operational warnings and advisories and Google Maps.


[Australian Severe Weather index] [Copyright Notice] [Email Contacts] [Search This Site] [Privacy Policy]
Document: tropical_cyclone_trop-depression-02.htm Updated: 28 May 2013